Time;durP1;ratioP1;P1;durP2;ratioP2;P2;SDS_P1;SDS_P2;PMS_P1;PMS_P2;Temp;Humidity;BMP_temperature;BMP_pressure;BME280_temperature;BME280_humidity;BME280_pressure;Samples;Min_cycle;Max_cycle;Signal;HPM_P1;HPM_P2
2021/10/16 00:02:15;;;;;;;17.67;9.80;;;7.20;99.90;;;;;;5020952;28;20585;-70
2021/10/16 00:04:44;;;;;;;25.57;10.20;;;7.10;99.90;;;;;;5019883;28;20243;-70
2021/10/16 00:07:15;;;;;;;16.47;9.80;;;7.10;99.90;;;;;;5020116;28;20313;-70
2021/10/16 00:09:43;;;;;;;26.97;10.17;;;7.00;99.90;;;;;;5026651;28;20603;-70
2021/10/16 00:12:11;;;;;;;20.23;10.10;;;7.00;99.90;;;;;;5021085;28;20189;-70
2021/10/16 00:14:41;;;;;;;16.50;9.43;;;6.90;99.90;;;;;;5032283;28;20221;-70
2021/10/16 00:17:13;;;;;;;22.50;8.67;;;6.80;99.90;;;;;;5028065;28;20198;-70
2021/10/16 00:19:41;;;;;;;19.53;9.60;;;6.70;99.90;;;;;;5024993;28;20494;-69
2021/10/16 00:22:10;;;;;;;21.00;9.80;;;6.70;99.90;;;;;;5022410;28;20538;-70
2021/10/16 00:24:39;;;;;;;16.30;8.83;;;6.60;99.90;;;;;;5023542;28;20252;-70
2021/10/16 00:27:08;;;;;;;20.30;9.77;;;6.60;99.90;;;;;;5008605;28;21610;-70
2021/10/16 00:29:36;;;;;;;18.50;9.57;;;6.60;99.90;;;;;;5022908;28;20771;-70
2021/10/16 00:32:05;;;;;;;18.73;9.90;;;6.60;99.90;;;;;;5037548;28;20260;-70
2021/10/16 00:34:35;;;;;;;19.33;10.30;;;6.60;99.90;;;;;;5007075;28;20214;-70
2021/10/16 00:37:05;;;;;;;20.20;9.13;;;6.60;99.90;;;;;;5026172;28;20201;-70
2021/10/16 00:39:33;;;;;;;21.70;9.57;;;6.60;99.90;;;;;;5018792;28;20202;-70
2021/10/16 00:42:02;;;;;;;24.40;10.17;;;6.60;99.90;;;;;;5024135;28;20233;-70
2021/10/16 00:44:30;;;;;;;28.40;10.20;;;6.60;99.90;;;;;;5027102;28;20230;-70
2021/10/16 00:46:59;;;;;;;19.67;9.67;;;6.70;99.90;;;;;;5016175;28;20230;-70
2021/10/16 00:49:29;;;;;;;19.07;9.57;;;6.70;99.90;;;;;;5018326;28;20186;-70
2021/10/16 00:52:01;;;;;;;19.80;9.23;;;6.70;99.90;;;;;;5023100;28;20223;-70
2021/10/16 00:54:30;;;;;;;19.97;10.47;;;6.70;99.90;;;;;;5022916;28;20286;-70
2021/10/16 00:57:01;;;;;;;19.70;9.47;;;6.70;99.90;;;;;;5027203;28;20196;-70
2021/10/16 00:59:31;;;;;;;16.80;9.27;;;6.80;99.90;;;;;;5026236;28;20190;-70
2021/10/16 01:01:59;;;;;;;14.57;9.60;;;6.70;99.90;;;;;;5033039;28;20193;-70
2021/10/16 01:04:27;;;;;;;18.80;9.57;;;6.70;99.90;;;;;;5017927;28;20568;-70
2021/10/16 01:06:58;;;;;;;17.63;9.50;;;6.70;99.90;;;;;;5022624;28;20229;-70
2021/10/16 01:09:27;;;;;;;16.73;9.00;;;6.70;99.90;;;;;;5027318;28;20185;-70
2021/10/16 01:11:56;;;;;;;20.80;9.17;;;6.80;99.90;;;;;;5026557;28;20496;-70
2021/10/16 01:14:27;;;;;;;22.10;9.60;;;6.80;99.90;;;;;;5023813;28;20190;-70
2021/10/16 01:16:58;;;;;;;24.47;10.07;;;6.80;99.90;;;;;;5028250;28;20293;-70
2021/10/16 01:19:28;;;;;;;20.83;9.87;;;6.80;99.90;;;;;;5023309;28;20688;-70
2021/10/16 01:21:59;;;;;;;21.70;9.80;;;6.80;99.90;;;;;;5021253;28;20194;-70
2021/10/16 01:24:30;;;;;;;22.90;9.80;;;6.70;99.90;;;;;;5024924;28;20196;-69
2021/10/16 01:26:58;;;;;;;16.37;9.70;;;6.70;99.90;;;;;;5021244;28;20836;-70
2021/10/16 01:29:27;;;;;;;16.50;8.97;;;6.70;99.90;;;;;;5031779;28;20201;-70
2021/10/16 01:32:00;;;;;;;20.77;9.23;;;6.60;99.90;;;;;;5019901;28;20727;-70
2021/10/16 01:34:28;;;;;;;17.00;8.43;;;6.50;99.90;;;;;;5026589;28;20210;-70
2021/10/16 01:36:58;;;;;;;19.77;10.03;;;6.50;99.90;;;;;;5024984;28;20718;-70
2021/10/16 01:39:29;;;;;;;19.10;9.33;;;6.40;99.90;;;;;;5025099;28;20668;-70
2021/10/16 01:41:57;;;;;;;21.80;8.83;;;6.40;99.90;;;;;;5031743;28;20189;-70
2021/10/16 01:44:26;;;;;;;19.30;9.73;;;6.30;99.90;;;;;;5033389;28;20233;-70
2021/10/16 01:46:54;;;;;;;19.10;9.30;;;6.30;99.90;;;;;;5020391;28;20305;-70
2021/10/16 01:49:23;;;;;;;20.90;9.80;;;6.30;99.90;;;;;;5030924;28;20284;-70
2021/10/16 01:51:55;;;;;;;20.43;9.53;;;6.10;99.90;;;;;;5028158;28;20245;-70
2021/10/16 01:54:25;;;;;;;16.37;9.40;;;6.10;99.90;;;;;;5030915;28;20204;-70
2021/10/16 01:56:53;;;;;;;19.50;9.97;;;6.00;99.90;;;;;;5029052;28;20676;-69
2021/10/16 01:59:25;;;;;;;23.23;10.00;;;6.00;99.90;;;;;;5024296;28;20715;-70
2021/10/16 02:02:06;;;;;;;24.00;9.70;;;6.00;99.90;;;;;;5020759;28;20193;-70
2021/10/16 02:04:35;;;;;;;22.27;9.17;;;6.00;99.90;;;;;;5033824;28;20205;-70
2021/10/16 02:07:03;;;;;;;27.13;9.20;;;5.90;99.90;;;;;;5024676;28;20190;-70
2021/10/16 02:09:37;;;;;;;17.70;9.20;;;5.90;99.90;;;;;;5026254;28;20196;-70
2021/10/16 02:12:06;;;;;;;18.77;9.17;;;5.90;99.90;;;;;;5032079;28;20209;-70
2021/10/16 02:14:37;;;;;;;21.33;9.47;;;5.80;99.90;;;;;;5019517;28;20186;-70
2021/10/16 02:17:05;;;;;;;18.13;9.80;;;5.80;99.90;;;;;;5025353;28;20200;-70
2021/10/16 02:19:35;;;;;;;18.23;9.80;;;5.70;99.90;;;;;;5030439;28;20197;-70
2021/10/16 02:22:04;;;;;;;19.10;9.20;;;5.70;99.90;;;;;;5032650;28;20676;-70
2021/10/16 02:24:33;;;;;;;21.70;8.47;;;5.70;99.90;;;;;;5031207;28;20280;-70
2021/10/16 02:27:02;;;;;;;18.83;8.53;;;5.70;99.90;;;;;;5026845;28;20225;-69
2021/10/16 02:29:30;;;;;;;18.77;9.47;;;5.70;99.90;;;;;;5030489;28;20587;-70
2021/10/16 02:31:59;;;;;;;21.63;8.83;;;5.60;99.90;;;;;;5023571;28;20706;-70
2021/10/16 02:34:27;;;;;;;16.10;9.37;;;5.60;99.90;;;;;;5028470;28;20186;-70
2021/10/16 02:36:56;;;;;;;21.60;9.67;;;5.50;99.90;;;;;;5022201;28;20202;-69
2021/10/16 02:39:24;;;;;;;20.97;9.23;;;5.50;99.90;;;;;;5005170;28;20243;-70
2021/10/16 02:41:56;;;;;;;17.77;9.77;;;5.50;99.90;;;;;;5024349;28;20427;-70
2021/10/16 02:44:25;;;;;;;28.30;10.17;;;5.50;99.90;;;;;;5039872;28;20230;-70
2021/10/16 02:46:54;;;;;;;21.77;9.47;;;5.50;99.90;;;;;;5026923;28;20252;-70
2021/10/16 02:49:23;;;;;;;19.00;9.83;;;5.40;99.90;;;;;;5033317;28;20276;-70
2021/10/16 02:51:54;;;;;;;22.27;10.43;;;5.40;99.90;;;;;;5026376;28;20688;-70
2021/10/16 02:54:22;;;;;;;19.30;9.63;;;5.40;99.90;;;;;;5023095;28;20297;-70
2021/10/16 02:56:50;;;;;;;19.90;9.70;;;5.40;99.90;;;;;;5025278;28;20242;-70
2021/10/16 02:59:22;;;;;;;18.93;9.30;;;5.30;99.90;;;;;;5033881;28;20189;-70
2021/10/16 03:01:51;;;;;;;17.80;9.63;;;5.20;99.90;;;;;;5025328;28;20204;-70
2021/10/16 03:04:19;;;;;;;21.63;9.13;;;5.20;99.90;;;;;;5021995;28;20285;-70
2021/10/16 03:06:48;;;;;;;19.47;9.60;;;5.10;99.90;;;;;;5023404;28;20296;-70
2021/10/16 03:09:17;;;;;;;23.90;9.57;;;5.10;99.90;;;;;;5025698;28;20201;-70
2021/10/16 03:11:46;;;;;;;22.40;9.33;;;5.10;99.90;;;;;;5021928;28;20320;-70
2021/10/16 03:14:14;;;;;;;19.33;9.67;;;5.00;99.90;;;;;;5026045;28;20615;-70
2021/10/16 03:16:44;;;;;;;18.53;9.00;;;5.00;99.90;;;;;;5020548;28;20660;-66
2021/10/16 03:19:13;;;;;;;22.67;9.90;;;5.10;99.90;;;;;;5026535;28;20286;-70
2021/10/16 03:21:41;;;;;;;22.90;10.37;;;5.00;99.90;;;;;;5024840;28;20285;-69
2021/10/16 03:24:09;;;;;;;17.57;9.30;;;5.00;99.90;;;;;;5026732;28;20301;-70
2021/10/16 03:26:38;;;;;;;16.30;9.50;;;5.00;99.90;;;;;;5030948;28;20204;-69
2021/10/16 03:29:06;;;;;;;19.97;9.73;;;4.90;99.90;;;;;;5034818;28;20205;-70
2021/10/16 03:31:35;;;;;;;17.47;8.77;;;4.80;99.90;;;;;;5025145;28;20596;-70
2021/10/16 03:34:05;;;;;;;14.03;8.97;;;4.70;99.90;;;;;;5021065;28;20224;-70
2021/10/16 03:36:34;;;;;;;17.17;8.90;;;4.60;99.90;;;;;;5021891;28;20189;-70
2021/10/16 03:39:03;;;;;;;15.87;9.70;;;4.60;99.90;;;;;;5024162;28;20830;-70
2021/10/16 03:41:31;;;;;;;18.27;8.40;;;4.50;99.90;;;;;;5028382;28;20221;-70
2021/10/16 03:44:00;;;;;;;18.97;8.90;;;4.50;99.90;;;;;;5030515;28;20196;-70
2021/10/16 03:46:28;;;;;;;24.67;8.87;;;4.50;99.90;;;;;;5030477;28;20197;-70
2021/10/16 03:48:57;;;;;;;16.40;9.40;;;4.40;99.90;;;;;;5028862;28;20306;-70
2021/10/16 03:51:26;;;;;;;20.17;9.30;;;4.50;99.90;;;;;;5020847;28;20218;-70
2021/10/16 03:53:55;;;;;;;23.57;9.80;;;4.50;99.90;;;;;;5031150;28;20699;-70
2021/10/16 03:56:24;;;;;;;21.83;9.67;;;4.40;99.90;;;;;;5022090;28;20238;-69
2021/10/16 03:58:53;;;;;;;20.43;9.50;;;4.40;99.90;;;;;;5019105;28;20688;-69
2021/10/16 04:01:21;;;;;;;17.50;9.10;;;4.40;99.90;;;;;;5028781;28;20662;-70
2021/10/16 04:03:50;;;;;;;18.77;9.70;;;4.40;99.90;;;;;;5022423;28;20431;-70
2021/10/16 04:06:18;;;;;;;17.10;9.40;;;4.40;99.90;;;;;;5019575;28;20189;-70
2021/10/16 04:08:48;;;;;;;12.77;7.73;;;4.30;99.90;;;;;;5021851;28;20200;-69
2021/10/16 04:11:17;;;;;;;14.57;8.90;;;4.20;99.90;;;;;;5029770;28;20186;-69
2021/10/16 04:13:45;;;;;;;17.43;9.50;;;4.20;99.90;;;;;;5019356;28;20635;-67
2021/10/16 04:16:13;;;;;;;15.70;9.33;;;4.20;99.90;;;;;;5020001;28;20224;-70
2021/10/16 04:18:42;;;;;;;14.60;8.80;;;4.10;99.90;;;;;;5027517;28;20663;-70
2021/10/16 04:21:18;;;;;;;18.57;9.87;;;4.10;99.90;;;;;;5026777;28;20201;-70
2021/10/16 04:23:48;;;;;;;16.63;9.27;;;4.10;99.90;;;;;;5025724;28;20212;-69
2021/10/16 04:26:16;;;;;;;17.80;9.50;;;4.00;99.90;;;;;;5024674;28;20222;-70
2021/10/16 04:28:44;;;;;;;14.43;8.57;;;4.00;99.90;;;;;;5034099;28;20656;-70
2021/10/16 04:31:13;;;;;;;11.93;8.37;;;4.00;99.90;;;;;;5030554;28;20232;-70
2021/10/16 04:33:41;;;;;;;12.23;8.53;;;3.90;99.90;;;;;;5024591;28;20220;-70
2021/10/16 04:36:10;;;;;;;18.53;8.50;;;3.90;99.90;;;;;;5021930;28;20247;-70
2021/10/16 04:38:44;;;;;;;16.10;9.27;;;3.80;99.90;;;;;;5030974;28;20204;-70
2021/10/16 04:41:14;;;;;;;13.60;8.60;;;3.80;99.90;;;;;;5028205;28;20195;-69
2021/10/16 04:43:44;;;;;;;16.50;9.17;;;3.80;99.90;;;;;;5028012;28;20192;-69
2021/10/16 04:46:13;;;;;;;22.57;9.47;;;3.80;99.90;;;;;;5023233;28;20256;-70
2021/10/16 04:48:42;;;;;;;16.40;9.23;;;3.80;99.90;;;;;;5021727;28;20466;-70
2021/10/16 04:51:12;;;;;;;14.57;8.30;;;3.90;99.90;;;;;;5030782;28;20211;-70
2021/10/16 04:53:43;;;;;;;14.43;9.00;;;3.90;99.90;;;;;;5021941;28;20214;-70
2021/10/16 04:56:13;;;;;;;18.47;9.17;;;4.00;99.90;;;;;;5023361;28;20630;-70
2021/10/16 04:58:41;;;;;;;15.67;9.10;;;4.00;99.90;;;;;;5036348;28;20720;-70
2021/10/16 05:01:10;;;;;;;17.17;8.87;;;4.00;99.90;;;;;;5030954;28;20198;-69
2021/10/16 05:03:38;;;;;;;17.40;9.53;;;4.00;99.90;;;;;;5024178;28;20189;-70
2021/10/16 05:06:10;;;;;;;19.90;9.43;;;4.00;99.90;;;;;;5027413;28;20197;-69
2021/10/16 05:08:40;;;;;;;19.10;10.40;;;4.00;99.90;;;;;;5027531;28;20197;-70
2021/10/16 05:11:09;;;;;;;21.70;10.33;;;4.00;99.90;;;;;;5033479;28;20243;-70
2021/10/16 05:13:41;;;;;;;13.93;8.97;;;4.00;99.90;;;;;;5027489;28;20209;-70
2021/10/16 05:16:10;;;;;;;19.87;8.93;;;4.00;99.90;;;;;;5015148;28;20593;-70
2021/10/16 05:18:41;;;;;;;19.20;9.07;;;4.10;99.90;;;;;;5029437;28;20194;-70
2021/10/16 05:21:10;;;;;;;14.87;8.97;;;4.00;99.90;;;;;;5027864;28;20714;-70
2021/10/16 05:23:38;;;;;;;18.57;10.10;;;4.00;99.90;;;;;;5027032;28;20267;-70
2021/10/16 05:26:06;;;;;;;21.80;9.67;;;4.00;99.90;;;;;;5028884;28;20565;-70
2021/10/16 05:28:35;;;;;;;20.47;9.70;;;4.10;99.90;;;;;;5030245;28;20544;-70
2021/10/16 05:31:05;;;;;;;25.80;9.50;;;4.20;99.90;;;;;;5033243;28;20224;-70
2021/10/16 05:33:33;;;;;;;16.67;8.83;;;4.30;99.90;;;;;;5031865;28;20264;-70
2021/10/16 05:36:04;;;;;;;20.50;9.50;;;4.40;99.90;;;;;;5032537;28;20263;-70
2021/10/16 05:38:33;;;;;;;19.33;9.17;;;4.40;99.90;;;;;;5026859;28;20229;-70
2021/10/16 05:41:01;;;;;;;19.13;9.60;;;4.40;99.90;;;;;;5022637;28;20219;-70
2021/10/16 05:43:30;;;;;;;19.50;9.80;;;4.50;99.90;;;;;;5026415;28;20190;-70
2021/10/16 05:45:59;;;;;;;20.23;9.70;;;4.50;99.90;;;;;;5028259;28;20194;-70
2021/10/16 05:48:29;;;;;;;22.90;9.67;;;4.50;99.90;;;;;;5025692;28;20669;-70
2021/10/16 05:50:59;;;;;;;19.23;9.37;;;4.50;99.90;;;;;;5023720;28;20217;-70
2021/10/16 05:53:28;;;;;;;18.97;9.00;;;4.50;99.90;;;;;;5025129;28;20206;-70
2021/10/16 05:55:56;;;;;;;22.97;9.77;;;4.50;99.90;;;;;;5038866;28;20278;-70
2021/10/16 05:58:25;;;;;;;19.13;9.57;;;4.40;99.90;;;;;;5023048;28;20653;-70
2021/10/16 06:00:54;;;;;;;19.63;9.63;;;4.40;99.90;;;;;;5029503;28;20280;-70
2021/10/16 06:03:22;;;;;;;23.73;10.67;;;4.30;99.90;;;;;;5028126;28;20194;-70
2021/10/16 06:05:57;;;;;;;19.07;11.17;;;4.30;99.90;;;;;;5031436;28;20190;-69
2021/10/16 06:08:25;;;;;;;19.60;10.93;;;4.40;99.90;;;;;;5032230;28;20280;-70
2021/10/16 06:10:56;;;;;;;30.27;11.23;;;4.40;99.90;;;;;;5027883;28;20236;-69
2021/10/16 06:13:24;;;;;;;22.63;11.37;;;4.50;99.90;;;;;;5029960;28;20217;-70
2021/10/16 06:15:53;;;;;;;24.63;11.23;;;4.60;99.90;;;;;;5021453;28;20201;-69
2021/10/16 06:18:24;;;;;;;29.50;11.50;;;4.60;99.90;;;;;;5031587;28;20290;-70
2021/10/16 06:20:54;;;;;;;21.73;11.30;;;4.60;99.90;;;;;;5028219;28;20339;-70
2021/10/16 06:23:22;;;;;;;31.33;12.70;;;4.60;99.90;;;;;;5021669;28;20212;-70
2021/10/16 06:25:51;;;;;;;32.93;13.00;;;4.70;99.90;;;;;;5020167;28;20240;-68
2021/10/16 06:28:19;;;;;;;31.13;13.10;;;4.70;99.90;;;;;;5025212;28;20486;-70
2021/10/16 06:30:48;;;;;;;26.37;12.40;;;4.80;99.90;;;;;;5026596;28;20284;-70
2021/10/16 06:33:16;;;;;;;25.43;11.50;;;4.80;99.90;;;;;;5012670;28;20247;-70
2021/10/16 06:35:45;;;;;;;24.50;11.93;;;4.80;99.90;;;;;;5015858;28;20257;-70
2021/10/16 06:38:15;;;;;;;22.30;11.13;;;4.80;99.90;;;;;;5015580;28;20197;-70
2021/10/16 06:40:44;;;;;;;33.63;12.67;;;4.90;99.90;;;;;;5018406;28;20190;-69
2021/10/16 06:43:12;;;;;;;27.73;13.47;;;4.90;99.90;;;;;;5023493;28;20189;-72
2021/10/16 06:45:41;;;;;;;29.07;14.13;;;5.00;99.90;;;;;;5024271;28;20660;-70
2021/10/16 06:48:10;;;;;;;31.40;13.90;;;5.20;99.90;;;;;;5021491;28;20229;-70
2021/10/16 06:50:38;;;;;;;34.00;13.43;;;5.30;99.90;;;;;;5025321;28;20197;-70
2021/10/16 06:53:07;;;;;;;26.47;13.30;;;5.40;99.90;;;;;;5023514;28;20221;-70
2021/10/16 06:55:38;;;;;;;27.83;11.87;;;5.40;99.90;;;;;;5020273;28;20217;-70
2021/10/16 06:58:07;;;;;;;33.33;12.93;;;5.50;99.90;;;;;;5021854;28;20288;-69
2021/10/16 07:00:36;;;;;;;35.63;12.77;;;5.60;99.90;;;;;;5023679;28;20221;-70
2021/10/16 07:03:07;;;;;;;35.27;11.87;;;5.60;99.90;;;;;;5021999;28;20708;-70
2021/10/16 07:05:35;;;;;;;34.33;14.10;;;5.70;99.90;;;;;;5015478;28;20714;-70
2021/10/16 07:08:04;;;;;;;32.30;12.97;;;5.80;99.90;;;;;;5024126;28;20285;-70
2021/10/16 07:10:33;;;;;;;33.67;13.37;;;5.70;99.90;;;;;;5045440;28;20186;-70
2021/10/16 07:13:03;;;;;;;35.30;13.47;;;5.80;99.90;;;;;;5034204;28;20221;-70
2021/10/16 07:15:31;;;;;;;30.10;12.50;;;5.90;99.90;;;;;;5024344;28;20469;-70
2021/10/16 07:18:00;;;;;;;28.87;14.33;;;5.90;99.90;;;;;;5021750;28;20198;-70
2021/10/16 07:20:28;;;;;;;33.17;13.07;;;6.10;99.90;;;;;;5025763;28;20258;-70
2021/10/16 07:22:57;;;;;;;28.83;13.63;;;6.20;99.90;;;;;;5021626;28;20228;-70
2021/10/16 07:25:25;;;;;;;32.30;15.43;;;6.40;99.90;;;;;;5036386;28;20189;-70
2021/10/16 07:27:54;;;;;;;29.07;14.70;;;6.60;99.90;;;;;;5023612;28;20617;-70
2021/10/16 07:30:24;;;;;;;31.13;13.70;;;6.80;99.90;;;;;;5021567;28;20204;-69
2021/10/16 07:32:52;;;;;;;26.57;13.30;;;7.00;99.90;;;;;;5024746;28;20193;-69
2021/10/16 07:35:22;;;;;;;31.20;12.77;;;7.10;99.90;;;;;;5027958;28;20217;-70
2021/10/16 07:37:50;;;;;;;36.57;15.53;;;7.20;99.90;;;;;;5025562;28;21064;-70
2021/10/16 07:40:19;;;;;;;62.20;43.87;;;7.10;99.90;;;;;;5010364;28;20202;-71
2021/10/16 07:42:48;;;;;;;40.50;23.80;;;7.10;99.90;;;;;;5024356;28;20699;-70
2021/10/16 07:45:17;;;;;;;30.93;15.93;;;7.10;99.90;;;;;;5026823;28;20217;-70
2021/10/16 07:47:47;;;;;;;41.70;20.90;;;7.20;99.90;;;;;;5011101;28;20244;-70
2021/10/16 07:50:15;;;;;;;56.27;33.53;;;7.30;99.90;;;;;;5036119;28;20279;-70
2021/10/16 07:52:44;;;;;;;25.67;13.87;;;7.40;99.90;;;;;;5025760;28;20193;-70
2021/10/16 07:55:12;;;;;;;27.03;12.30;;;7.60;99.90;;;;;;5016596;28;20217;-70
2021/10/16 07:57:40;;;;;;;25.13;12.37;;;7.70;99.90;;;;;;5034754;28;20202;-70
2021/10/16 08:00:10;;;;;;;25.70;12.47;;;7.80;99.90;;;;;;5027708;28;20205;-70
2021/10/16 08:02:39;;;;;;;25.73;12.23;;;7.90;99.90;;;;;;5019106;28;20189;-70
2021/10/16 08:05:13;;;;;;;32.67;12.53;;;7.90;99.90;;;;;;5033089;28;20232;-70
2021/10/16 08:07:42;;;;;;;27.17;12.23;;;7.90;99.90;;;;;;5026176;28;20250;-70
2021/10/16 08:10:15;;;;;;;25.33;11.60;;;8.00;99.90;;;;;;5015969;28;20688;-70
2021/10/16 08:12:44;;;;;;;28.37;11.53;;;8.00;99.90;;;;;;5027998;28;20197;-70
2021/10/16 08:15:14;;;;;;;30.00;11.80;;;8.20;99.90;;;;;;5030317;28;20647;-70
2021/10/16 08:17:42;;;;;;;25.80;10.70;;;8.20;99.90;;;;;;5025976;28;20636;-70
2021/10/16 08:20:12;;;;;;;20.43;11.13;;;8.20;99.90;;;;;;5021417;28;20193;-70
2021/10/16 08:22:42;;;;;;;21.13;10.63;;;8.30;99.90;;;;;;5027531;28;20225;-70
2021/10/16 08:25:12;;;;;;;24.77;10.13;;;8.40;99.90;;;;;;5027558;28;20197;-70
2021/10/16 08:27:46;;;;;;;18.47;10.70;;;8.70;99.90;;;;;;5023822;28;20646;-70
2021/10/16 08:30:16;;;;;;;25.13;9.93;;;9.10;99.90;;;;;;5024381;28;20873;-70
2021/10/16 08:32:45;;;;;;;18.67;8.73;;;9.40;99.90;;;;;;5023905;28;20292;-70
2021/10/16 08:35:15;;;;;;;17.47;9.23;;;9.50;99.90;;;;;;5019484;28;20220;-69
2021/10/16 08:37:44;;;;;;;20.73;9.13;;;9.50;99.90;;;;;;5028169;28;20614;-70
2021/10/16 08:40:12;;;;;;;15.77;9.40;;;9.60;99.90;;;;;;5023328;28;20845;-70
2021/10/16 08:42:41;;;;;;;13.37;8.97;;;9.60;99.90;;;;;;5026391;28;20305;-70
2021/10/16 08:45:10;;;;;;;18.60;9.17;;;9.70;99.90;;;;;;5029218;28;20192;-70
2021/10/16 08:47:39;;;;;;;15.43;8.60;;;9.80;99.90;;;;;;5027388;28;20291;-70
2021/10/16 08:50:09;;;;;;;22.60;9.23;;;9.90;99.90;;;;;;5025188;28;20281;-70
2021/10/16 08:52:40;;;;;;;16.47;9.10;;;10.00;99.90;;;;;;5033661;28;20229;-70
2021/10/16 08:55:09;;;;;;;15.50;8.27;;;10.10;99.90;;;;;;5037066;28;20351;-70
2021/10/16 08:57:41;;;;;;;24.40;10.70;;;10.20;99.90;;;;;;5030940;28;20221;-70
2021/10/16 09:00:51;;;;;;;15.70;8.00;;;10.30;99.90;;;;;;5031826;28;20284;-70
2021/10/16 09:03:26;;;;;;;17.50;8.47;;;10.60;99.90;;;;;;5027598;28;20272;-70
2021/10/16 09:06:12;;;;;;;13.97;7.23;;;11.00;99.90;;;;;;5035751;28;20186;-69
2021/10/16 09:08:45;;;;;;;16.30;6.80;;;11.40;99.90;;;;;;5021035;28;20190;-70
2021/10/16 09:11:28;;;;;;;25.07;11.47;;;11.80;99.90;;;;;;5029121;28;20697;-70
2021/10/16 09:14:02;;;;;;;24.83;9.33;;;11.90;99.90;;;;;;5033380;28;20221;-69
2021/10/16 09:16:37;;;;;;;13.50;5.83;;;12.00;99.90;;;;;;5031854;28;20212;-69
2021/10/16 09:19:11;;;;;;;16.10;5.50;;;12.30;99.90;;;;;;5032210;28;20468;-70
2021/10/16 09:21:43;;;;;;;14.87;6.47;;;12.60;99.90;;;;;;5024830;28;20621;-70
2021/10/16 09:24:22;;;;;;;17.47;5.37;;;12.80;99.90;;;;;;5036798;28;20627;-70
2021/10/16 09:26:53;;;;;;;10.37;4.60;;;13.00;99.90;;;;;;5030496;28;20189;-70
2021/10/16 09:29:23;;;;;;;17.93;4.57;;;13.20;99.90;;;;;;5028673;28;20198;-69
2021/10/16 09:31:54;;;;;;;17.73;5.30;;;13.40;99.90;;;;;;5035515;28;20201;-69
2021/10/16 09:34:24;;;;;;;15.63;9.23;;;13.50;99.90;;;;;;5030249;28;20235;-70
2021/10/16 09:36:53;;;;;;;22.27;13.90;;;13.60;99.90;;;;;;5024011;28;20561;-70
2021/10/16 09:39:23;;;;;;;15.23;9.67;;;13.40;99.90;;;;;;5026405;28;20198;-70
2021/10/16 09:41:52;;;;;;;30.73;17.00;;;13.50;99.90;;;;;;5036748;28;20193;-70
2021/10/16 09:44:26;;;;;;;12.13;3.90;;;13.80;99.90;;;;;;5009119;28;20226;-70
2021/10/16 09:47:04;;;;;;;17.47;3.83;;;13.90;99.90;;;;;;5030787;28;20274;-70
2021/10/16 09:49:35;;;;;;;12.20;3.67;;;14.00;99.90;;;;;;5024160;28;20426;-70
2021/10/16 09:52:05;;;;;;;14.80;7.50;;;14.20;99.90;;;;;;5027606;28;20410;-70
2021/10/16 09:54:35;;;;;;;8.83;4.83;;;14.20;99.90;;;;;;5027626;28;20239;-69
2021/10/16 09:57:06;;;;;;;15.40;5.30;;;14.20;99.90;;;;;;5024495;28;20252;-70
2021/10/16 09:59:36;;;;;;;8.47;3.97;;;14.10;99.90;;;;;;5025527;28;20674;-69
2021/10/16 10:02:06;;;;;;;12.30;3.93;;;14.40;99.90;;;;;;5024484;28;20247;-70
2021/10/16 10:04:40;;;;;;;12.37;5.03;;;14.70;99.90;;;;;;5021813;28;20194;-70
2021/10/16 10:07:09;;;;;;;12.10;4.70;;;14.80;99.90;;;;;;5019844;28;20201;-70
2021/10/16 10:09:43;;;;;;;13.97;4.70;;;14.90;99.90;;;;;;5020653;28;20195;-69
2021/10/16 10:12:16;;;;;;;9.43;4.03;;;15.00;99.90;;;;;;5025142;28;20206;-69
2021/10/16 10:14:48;;;;;;;15.60;5.30;;;15.10;99.90;;;;;;5016917;28;20235;-70
2021/10/16 10:17:19;;;;;;;9.37;3.90;;;15.20;99.90;;;;;;5021689;28;20214;-70
2021/10/16 10:19:52;;;;;;;8.13;3.23;;;15.20;99.90;;;;;;5021103;28;20623;-70
2021/10/16 10:22:21;;;;;;;10.13;3.10;;;15.40;99.90;;;;;;5025181;28;20196;-70
2021/10/16 10:24:53;;;;;;;13.80;6.97;;;15.50;99.90;;;;;;5020793;28;20189;-70
2021/10/16 10:27:23;;;;;;;6.63;2.80;;;15.60;99.90;;;;;;5026099;28;20234;-70
2021/10/16 10:29:54;;;;;;;5.80;2.60;;;15.70;99.90;;;;;;5023661;28;20240;-68
2021/10/16 10:32:24;;;;;;;6.50;2.47;;;15.80;99.90;;;;;;5020011;28;20233;-69
2021/10/16 10:34:55;;;;;;;5.63;2.27;;;15.80;99.90;;;;;;5023538;28;20189;-69
2021/10/16 10:37:30;;;;;;;6.10;2.10;;;15.80;99.90;;;;;;5017884;28;20237;-69
2021/10/16 10:40:02;;;;;;;6.13;3.87;;;16.10;99.90;;;;;;5024471;28;20903;-70
2021/10/16 10:42:50;;;;;;;4.23;2.00;;;16.30;99.90;;;;;;5037236;28;20275;-70
2021/10/16 10:45:32;;;;;;;6.30;2.27;;;16.30;99.90;;;;;;5018171;28;20292;-70
2021/10/16 10:48:04;;;;;;;3.63;1.80;;;16.40;99.90;;;;;;5023681;28;20261;-70
2021/10/16 10:51:00;;;;;;;3.63;1.80;;;16.60;99.90;;;;;;5021178;28;20260;-70
2021/10/16 10:53:40;;;;;;;3.43;1.80;;;16.60;99.90;;;;;;5018145;28;20263;-70
2021/10/16 10:56:21;;;;;;;8.40;2.20;;;17.10;99.90;;;;;;5018795;28;20193;-70
2021/10/16 10:59:04;;;;;;;5.73;2.10;;;17.20;99.90;;;;;;5026391;28;20216;-70
2021/10/16 11:02:03;;;;;;;3.17;1.97;;;17.20;99.90;;;;;;5039819;28;20577;-70
2021/10/16 11:04:40;;;;;;;4.93;2.03;;;16.90;99.90;;;;;;5014877;28;20683;-70
2021/10/16 11:07:11;;;;;;;6.00;4.80;;;17.20;99.90;;;;;;5022894;28;20191;-70
2021/10/16 11:09:40;;;;;;;4.93;2.00;;;17.40;99.90;;;;;;5025781;28;20203;-70
2021/10/16 11:12:12;;;;;;;2.80;2.00;;;17.50;99.90;;;;;;5023799;28;20264;-70
2021/10/16 11:14:42;;;;;;;3.50;1.97;;;17.50;99.90;;;;;;5034234;28;20676;-71
2021/10/16 11:17:13;;;;;;;2.10;1.70;;;17.40;99.90;;;;;;5024227;28;20243;-70
2021/10/16 11:19:53;;;;;;;3.67;2.10;;;17.40;99.90;;;;;;5023505;28;20196;-70
2021/10/16 11:22:22;;;;;;;3.13;2.00;;;17.20;99.90;;;;;;5025639;28;20220;-70
2021/10/16 11:25:00;;;;;;;5.10;2.17;;;16.80;99.90;;;;;;5029931;28;20192;-71
2021/10/16 11:27:30;;;;;;;5.30;2.20;;;16.30;99.90;;;;;;5024376;28;20284;-69
2021/10/16 11:30:02;;;;;;;4.97;2.17;;;16.00;99.90;;;;;;5023267;28;20207;-70
2021/10/16 11:32:34;;;;;;;5.37;2.57;;;15.80;99.90;;;;;;5024964;28;20580;-70
2021/10/16 11:35:05;;;;;;;6.50;2.27;;;15.60;99.90;;;;;;5015133;28;20181;-70
2021/10/16 11:37:45;;;;;;;3.93;2.40;;;15.50;99.90;;;;;;5022305;28;20223;-70
2021/10/16 11:40:16;;;;;;;5.90;2.20;;;15.40;99.90;;;;;;5023623;28;20197;-70
2021/10/16 11:42:48;;;;;;;3.40;2.33;;;15.40;99.90;;;;;;5022342;28;20224;-71
2021/10/16 11:45:19;;;;;;;10.27;2.50;;;15.30;99.90;;;;;;5021244;28;20433;-70
2021/10/16 11:47:50;;;;;;;8.67;4.00;;;15.40;99.90;;;;;;5023979;28;20237;-70
2021/10/16 11:50:20;;;;;;;5.23;3.27;;;15.60;99.90;;;;;;5020437;28;20613;-70
2021/10/16 11:52:50;;;;;;;3.67;1.90;;;15.70;99.90;;;;;;5015750;28;20189;-71
2021/10/16 11:55:21;;;;;;;6.53;2.20;;;15.80;99.90;;;;;;5018036;28;20205;-70
2021/10/16 11:58:02;;;;;;;3.40;2.03;;;15.90;99.90;;;;;;5014769;28;20223;-71
2021/10/16 12:00:31;;;;;;;11.03;8.33;;;16.00;99.90;;;;;;5022769;28;20190;-70
2021/10/16 12:03:00;;;;;;;5.83;3.20;;;16.40;99.90;;;;;;5020677;28;20202;-70
2021/10/16 12:05:28;;;;;;;4.03;2.40;;;16.50;99.90;;;;;;5021150;28;20574;-70
2021/10/16 12:07:57;;;;;;;3.70;2.23;;;16.40;99.90;;;;;;5022741;28;20186;-70
2021/10/16 12:10:29;;;;;;;6.50;2.63;;;16.40;99.90;;;;;;5018959;28;20718;-71
2021/10/16 12:13:14;;;;;;;3.83;2.10;;;16.60;99.90;;;;;;5024238;28;20185;-70
2021/10/16 12:15:46;;;;;;;3.70;1.97;;;16.80;99.90;;;;;;5024748;28;20206;-70
2021/10/16 12:18:20;;;;;;;8.03;3.80;;;17.30;99.90;;;;;;5023555;28;20249;-70
2021/10/16 12:20:52;;;;;;;5.13;2.30;;;17.70;99.90;;;;;;5026839;28;20213;-70
2021/10/16 12:23:23;;;;;;;6.83;1.90;;;17.80;99.90;;;;;;5015444;28;20198;-71
2021/10/16 12:25:54;;;;;;;4.30;2.60;;;17.90;99.90;;;;;;5021802;28;20236;-70
2021/10/16 12:28:26;;;;;;;7.93;2.20;;;17.60;99.90;;;;;;5019480;28;20198;-70
2021/10/16 12:31:07;;;;;;;5.53;3.10;;;17.20;99.90;;;;;;5020369;28;20197;-70
2021/10/16 12:34:01;;;;;;;7.93;3.13;;;16.90;99.90;;;;;;5019663;28;20207;-74
2021/10/16 12:36:32;;;;;;;7.30;3.37;;;16.80;99.90;;;;;;5015580;28;20292;-74
2021/10/16 12:39:02;;;;;;;8.77;4.20;;;17.00;99.90;;;;;;5017583;28;20284;-69
2021/10/16 12:41:38;;;;;;;5.40;2.30;;;17.30;99.90;;;;;;5020966;28;20200;-69
2021/10/16 12:44:23;;;;;;;4.73;2.30;;;17.10;99.90;;;;;;5018935;28;20190;-69
2021/10/16 12:47:07;;;;;;;5.90;2.37;;;16.70;99.90;;;;;;5023623;28;20236;-69
2021/10/16 12:49:44;;;;;;;3.33;2.20;;;16.40;99.90;;;;;;5021120;28;20186;-69
2021/10/16 12:52:28;;;;;;;6.47;2.77;;;16.10;99.90;;;;;;5026242;28;20326;-70
2021/10/16 12:54:58;;;;;;;6.00;2.40;;;15.90;99.90;;;;;;5028551;28;20192;-70
2021/10/16 12:57:27;;;;;;;4.40;1.90;;;15.80;99.90;;;;;;5027033;28;20211;-69
2021/10/16 13:00:04;;;;;;;6.13;2.70;;;15.70;99.90;;;;;;5020874;28;20290;-69
2021/10/16 13:02:32;;;;;;;3.77;2.17;;;15.50;99.90;;;;;;5027451;28;20610;-69